createdAt,value
2019-06-20T00:02:13.506Z,24.20
2019-06-20T00:04:42.182Z,24.30
2019-06-20T00:07:11.103Z,24.30
2019-06-20T00:09:40.476Z,24.30
2019-06-20T00:12:09.206Z,24.30
2019-06-20T00:14:37.901Z,24.50
2019-06-20T00:17:06.823Z,24.70
2019-06-20T00:19:35.534Z,24.80
2019-06-20T00:22:04.234Z,24.60
2019-06-20T00:24:33.280Z,24.40
2019-06-20T00:27:02.014Z,24.20
2019-06-20T00:29:31.190Z,23.90
2019-06-20T00:31:59.997Z,23.80
2019-06-20T00:34:28.679Z,23.40
2019-06-20T00:36:57.383Z,23.10
2019-06-20T00:39:26.435Z,22.80
2019-06-20T00:41:55.129Z,22.50
2019-06-20T00:44:23.784Z,22.50
2019-06-20T00:46:52.552Z,22.40
2019-06-20T00:49:21.538Z,22.20
2019-06-20T00:51:50.279Z,22.10
2019-06-20T00:54:19.214Z,22.10
2019-06-20T00:56:47.867Z,22.00
2019-06-20T00:59:17.609Z,22.10
2019-06-20T01:01:46.850Z,22.30
2019-06-20T01:04:15.775Z,22.50
2019-06-20T01:06:44.466Z,22.50
2019-06-20T01:09:13.533Z,22.50
2019-06-20T01:11:42.500Z,22.60
2019-06-20T01:14:11.482Z,22.70
2019-06-20T01:16:40.248Z,22.80
2019-06-20T01:19:08.915Z,23.00
2019-06-20T01:21:37.588Z,23.00
2019-06-20T01:24:06.454Z,23.00
2019-06-20T01:26:35.218Z,23.10
2019-06-20T01:29:04.195Z,23.10
2019-06-20T01:31:33.056Z,23.00
2019-06-20T01:34:01.730Z,23.10
2019-06-20T01:36:30.394Z,23.00
2019-06-20T01:38:59.078Z,23.00
2019-06-20T01:41:27.779Z,22.90
2019-06-20T01:43:56.715Z,22.80
2019-06-20T01:46:25.534Z,22.80
2019-06-20T01:48:54.530Z,22.60
2019-06-20T01:51:23.408Z,22.50
2019-06-20T01:53:52.510Z,22.40
2019-06-20T01:56:21.904Z,22.40
2019-06-20T01:58:50.620Z,22.30
2019-06-20T02:01:19.885Z,22.10
2019-06-20T02:03:48.590Z,22.00
2019-06-20T02:06:17.430Z,22.00
2019-06-20T02:08:46.206Z,22.00
2019-06-20T02:11:14.953Z,22.00
2019-06-20T02:13:43.715Z,22.00
2019-06-20T02:16:12.414Z,22.00
2019-06-20T02:18:41.116Z,22.00
2019-06-20T02:21:09.955Z,21.90
2019-06-20T02:23:38.736Z,21.90
2019-06-20T02:26:07.510Z,21.80
2019-06-20T02:28:36.634Z,21.70
2019-06-20T02:31:05.512Z,21.60
2019-06-20T02:33:34.199Z,21.60
2019-06-20T02:36:03.083Z,21.50
2019-06-20T02:38:31.801Z,21.50
2019-06-20T02:41:00.448Z,21.40
2019-06-20T02:43:29.415Z,21.30
2019-06-20T02:45:58.172Z,21.30
2019-06-20T02:48:26.873Z,21.30
2019-06-20T02:50:55.686Z,21.30
2019-06-20T02:53:24.662Z,21.30
2019-06-20T02:55:53.989Z,21.30
2019-06-20T02:58:22.804Z,21.30
2019-06-20T03:00:57.619Z,21.30
2019-06-20T03:03:28.231Z,21.20
2019-06-20T03:05:57.626Z,21.20
2019-06-20T03:08:26.565Z,21.20
2019-06-20T03:10:55.278Z,21.30
2019-06-20T03:13:24.157Z,21.30
2019-06-20T03:15:53.146Z,21.30
2019-06-20T03:18:22.086Z,21.30
2019-06-20T03:20:51.433Z,21.40
2019-06-20T03:23:20.357Z,21.60
2019-06-20T03:25:49.062Z,21.90
2019-06-20T03:28:18.183Z,22.30
2019-06-20T03:30:47.730Z,22.60
2019-06-20T03:33:16.609Z,22.90
2019-06-20T03:35:45.697Z,22.90
2019-06-20T03:38:14.828Z,22.80
2019-06-20T03:40:43.740Z,22.60
2019-06-20T03:43:13.212Z,22.30
2019-06-20T03:45:42.014Z,22.00
2019-06-20T03:48:10.748Z,21.80
2019-06-20T03:50:39.489Z,21.60
2019-06-20T03:53:08.262Z,21.50
2019-06-20T03:55:37.233Z,21.90
2019-06-20T03:58:06.254Z,22.90
2019-06-20T04:00:35.914Z,24.00
2019-06-20T04:03:06.175Z,25.00
2019-06-20T04:05:35.964Z,25.50
2019-06-20T04:08:04.762Z,25.60
2019-06-20T04:11:01.703Z,25.80
2019-06-20T04:13:39.861Z,26.20
2019-06-20T04:16:08.968Z,26.70
2019-06-20T04:18:37.740Z,27.30
2019-06-20T04:21:06.518Z,27.80
2019-06-20T04:23:35.225Z,28.00
2019-06-20T04:26:04.373Z,28.00
2019-06-20T04:28:33.366Z,27.90
2019-06-20T04:31:02.363Z,27.80
2019-06-20T04:33:31.106Z,27.80
2019-06-20T04:35:59.830Z,27.90
2019-06-20T04:38:28.720Z,28.50
2019-06-20T04:40:57.426Z,29.00
2019-06-20T04:43:26.535Z,29.10
2019-06-20T04:46:13.147Z,29.00
2019-06-20T04:48:41.951Z,29.40
2019-06-20T04:51:10.705Z,29.50
2019-06-20T04:53:39.388Z,30.10
2019-06-20T04:56:08.167Z,30.90
2019-06-20T04:58:37.078Z,31.00
2019-06-20T05:01:05.982Z,29.70
2019-06-20T05:03:35.018Z,28.30
2019-06-20T05:06:03.939Z,27.20
2019-06-20T05:08:32.936Z,27.10
2019-06-20T05:11:01.738Z,27.60
2019-06-20T05:13:30.653Z,28.60
2019-06-20T05:15:59.344Z,29.60
2019-06-20T05:18:28.184Z,30.30
2019-06-20T05:20:56.905Z,29.90
2019-06-20T05:23:25.570Z,28.50
2019-06-20T05:25:54.667Z,27.50
2019-06-20T05:28:23.336Z,27.40
2019-06-20T05:30:52.204Z,28.00
2019-06-20T05:33:21.017Z,28.80
2019-06-20T05:35:49.905Z,28.70
2019-06-20T05:38:18.971Z,27.90
2019-06-20T05:40:47.857Z,27.10
2019-06-20T05:43:17.034Z,26.20
2019-06-20T05:45:48.654Z,25.60
2019-06-20T05:48:16.257Z,24.90
2019-06-20T05:50:45.003Z,24.60
2019-06-20T05:53:13.684Z,24.70
2019-06-20T05:55:42.643Z,24.40
2019-06-20T05:58:11.333Z,24.40
2019-06-20T06:00:40.255Z,24.90
2019-06-20T06:03:09.342Z,25.30
2019-06-20T06:05:38.082Z,25.40
2019-06-20T06:08:06.819Z,25.50
2019-06-20T06:10:36.646Z,25.60
2019-06-20T06:13:05.316Z,25.50
2019-06-20T06:15:33.987Z,25.50
2019-06-20T06:18:02.865Z,25.30
2019-06-20T06:20:31.532Z,25.30
2019-06-20T06:23:00.690Z,25.00
2019-06-20T06:25:29.780Z,24.90
2019-06-20T06:27:58.738Z,24.60
2019-06-20T06:30:27.638Z,24.40
2019-06-20T06:32:56.437Z,23.70
2019-06-20T06:35:25.275Z,23.10
2019-06-20T06:37:54.015Z,22.80
2019-06-20T06:40:23.447Z,22.60
2019-06-20T06:42:56.068Z,22.50
2019-06-20T06:45:25.894Z,22.40
2019-06-20T06:47:55.462Z,22.30
2019-06-20T06:50:24.568Z,22.30
2019-06-20T06:52:53.290Z,22.30
2019-06-20T06:55:22.059Z,22.50
2019-06-20T06:57:50.745Z,22.50
2019-06-20T07:00:19.839Z,22.40
2019-06-20T07:02:48.620Z,22.50
2019-06-20T07:05:18.061Z,22.50
2019-06-20T07:07:47.058Z,22.70
2019-06-20T07:10:18.206Z,22.90
2019-06-20T07:12:48.126Z,23.20
2019-06-20T07:15:17.196Z,23.40
2019-06-20T07:17:46.297Z,23.60
2019-06-20T07:20:15.468Z,23.90
2019-06-20T07:22:44.285Z,24.00
2019-06-20T07:25:13.500Z,24.10
2019-06-20T07:27:42.201Z,24.30
2019-06-20T07:30:13.319Z,24.50
2019-06-20T07:32:42.205Z,24.80
2019-06-20T07:35:11.596Z,25.00
2019-06-20T07:37:40.294Z,24.90
2019-06-20T07:40:10.696Z,24.50
2019-06-20T07:42:39.682Z,24.10
2019-06-20T07:45:09.170Z,24.00
2019-06-20T07:47:38.146Z,23.90
2019-06-20T07:50:08.951Z,23.90
2019-06-20T07:52:37.846Z,23.80
2019-06-20T07:55:07.039Z,23.60
2019-06-20T07:57:35.837Z,23.50
2019-06-20T08:00:06.091Z,23.40
2019-06-20T08:02:34.833Z,23.60
2019-06-20T08:05:04.035Z,23.70
2019-06-20T08:07:33.219Z,23.90
2019-06-20T08:10:02.649Z,23.90
2019-06-20T08:12:31.691Z,23.90
2019-06-20T08:15:13.984Z,23.80
2019-06-20T08:17:35.235Z,23.80
2019-06-20T08:20:01.638Z,24.10
2019-06-20T08:22:30.483Z,24.40
2019-06-20T08:25:00.958Z,24.70
2019-06-20T08:27:47.635Z,24.90
2019-06-20T08:30:16.537Z,25.20
2019-06-20T08:32:45.552Z,25.20
2019-06-20T08:35:14.647Z,25.10
2019-06-20T08:37:43.612Z,25.40
2019-06-20T08:40:12.647Z,26.40
2019-06-20T08:42:42.368Z,27.70
2019-06-20T08:45:11.466Z,28.40
2019-06-20T08:47:40.283Z,29.60
2019-06-20T08:50:10.152Z,31.70
2019-06-20T08:52:39.122Z,33.60
2019-06-20T08:55:08.431Z,35.00
2019-06-20T08:57:37.313Z,35.30
2019-06-20T09:00:08.205Z,36.00
2019-06-20T09:02:37.170Z,36.30
2019-06-20T09:05:06.440Z,35.50
2019-06-20T09:07:35.899Z,34.10
2019-06-20T09:10:05.938Z,32.50
2019-06-20T09:12:35.071Z,31.30
2019-06-20T09:15:04.236Z,30.10
2019-06-20T09:17:33.388Z,29.50
2019-06-20T09:20:02.930Z,28.90
2019-06-20T09:22:31.981Z,28.60
2019-06-20T09:25:00.975Z,27.80
2019-06-20T09:27:29.991Z,27.30
2019-06-20T09:29:58.797Z,27.30
2019-06-20T09:32:27.811Z,27.30
2019-06-20T09:34:56.631Z,27.40
2019-06-20T09:37:25.541Z,27.20
2019-06-20T09:39:54.790Z,27.00
2019-06-20T09:42:23.614Z,27.10
2019-06-20T09:44:54.075Z,28.00
2019-06-20T09:47:23.212Z,29.10
2019-06-20T09:49:55.217Z,29.50
2019-06-20T09:52:22.823Z,29.90
2019-06-20T09:54:51.746Z,30.10
2019-06-20T09:57:20.508Z,30.10
2019-06-20T10:00:03.276Z,29.50
2019-06-20T10:02:19.732Z,29.30
2019-06-20T10:04:49.503Z,29.00
2019-06-20T10:07:19.196Z,29.30
2019-06-20T10:09:48.225Z,29.80
2019-06-20T10:12:18.566Z,30.30
2019-06-20T10:14:48.007Z,30.30
2019-06-20T10:17:18.082Z,30.40
2019-06-20T10:19:48.303Z,30.60
2019-06-20T10:22:17.371Z,30.70
2019-06-20T10:24:47.377Z,30.70
2019-06-20T10:27:16.259Z,30.20
2019-06-20T10:29:47.180Z,29.90
2019-06-20T10:32:16.443Z,29.60
2019-06-20T10:34:46.664Z,29.10
2019-06-20T10:37:15.511Z,28.90
2019-06-20T10:39:45.040Z,28.80
2019-06-20T10:42:14.711Z,28.20
2019-06-20T10:44:44.256Z,28.10
2019-06-20T10:47:13.728Z,28.50
2019-06-20T10:49:43.560Z,28.90
2019-06-20T10:52:13.423Z,28.80
2019-06-20T10:54:43.313Z,29.10
2019-06-20T10:57:15.129Z,29.60
2019-06-20T10:59:44.251Z,30.10
2019-06-20T11:02:13.241Z,29.90
2019-06-20T11:04:42.422Z,30.00
2019-06-20T11:07:12.584Z,30.20
2019-06-20T11:09:41.303Z,29.90
2019-06-20T11:12:10.116Z,29.20
2019-06-20T11:14:40.298Z,28.70
2019-06-20T11:17:09.870Z,28.50
2019-06-20T11:19:39.749Z,28.50
2019-06-20T11:22:09.626Z,28.60
2019-06-20T11:24:39.202Z,28.60
2019-06-20T11:27:07.935Z,28.80
2019-06-20T11:29:39.744Z,28.70
2019-06-20T11:32:08.754Z,28.60
2019-06-20T11:34:38.282Z,28.50
2019-06-20T11:37:08.082Z,28.60
2019-06-20T11:39:37.452Z,28.70
2019-06-20T11:42:06.623Z,28.90
2019-06-20T11:44:36.984Z,29.10
2019-06-20T11:47:05.842Z,29.20
2019-06-20T11:49:36.348Z,29.10
2019-06-20T11:52:05.291Z,29.20
2019-06-20T11:54:34.487Z,29.40
2019-06-20T11:57:03.273Z,29.30
2019-06-20T11:59:32.447Z,29.10
2019-06-20T12:02:01.141Z,29.00
2019-06-20T12:04:29.874Z,29.30
2019-06-20T12:06:58.997Z,29.60
2019-06-20T12:09:30.731Z,29.80
2019-06-20T12:11:59.418Z,29.80
2019-06-20T12:14:28.508Z,29.70
2019-06-20T12:16:57.490Z,29.80
2019-06-20T12:19:26.369Z,30.00
2019-06-20T12:21:55.167Z,30.20
2019-06-20T12:24:25.393Z,30.50
2019-06-20T12:26:54.903Z,30.30
2019-06-20T12:29:23.961Z,30.30
2019-06-20T12:31:52.946Z,30.20
2019-06-20T12:34:21.711Z,30.00
2019-06-20T12:36:52.012Z,29.80
2019-06-20T12:39:20.733Z,29.50
2019-06-20T12:41:50.263Z,29.30
2019-06-20T12:44:20.047Z,29.30
2019-06-20T12:46:49.129Z,29.20
2019-06-20T12:49:17.890Z,29.40
2019-06-20T12:51:47.253Z,29.40
2019-06-20T12:54:16.019Z,29.40
2019-06-20T12:56:46.242Z,29.20
2019-06-20T12:59:15.085Z,29.10
2019-06-20T13:01:46.524Z,29.20
2019-06-20T13:04:14.220Z,29.30
2019-06-20T13:06:44.347Z,29.20
2019-06-20T13:09:13.166Z,28.90
2019-06-20T13:11:42.639Z,28.90
2019-06-20T13:14:11.605Z,28.70
2019-06-20T13:16:40.785Z,28.50
2019-06-20T13:19:09.510Z,28.40
2019-06-20T13:21:40.458Z,28.40
2019-06-20T13:24:09.274Z,28.30
2019-06-20T13:26:40.629Z,28.10
2019-06-20T13:29:08.731Z,28.30
2019-06-20T13:31:51.732Z,28.70
2019-06-20T13:34:08.225Z,28.90
2019-06-20T13:36:38.151Z,29.10
2019-06-20T13:39:07.983Z,29.00
2019-06-20T13:41:36.711Z,28.90
2019-06-20T13:44:06.224Z,28.80
2019-06-20T13:46:35.286Z,28.60
2019-06-20T13:49:04.075Z,28.40
2019-06-20T13:51:32.881Z,28.30
2019-06-20T13:54:01.887Z,28.10
2019-06-20T13:56:30.580Z,27.90
2019-06-20T13:58:59.398Z,27.80
2019-06-20T14:01:28.529Z,27.50
2019-06-20T14:03:57.656Z,27.30
2019-06-20T14:06:26.567Z,27.00
2019-06-20T14:08:55.755Z,26.70
2019-06-20T14:11:24.786Z,26.60
2019-06-20T14:13:53.603Z,26.50
2019-06-20T14:16:22.631Z,26.50
2019-06-20T14:18:51.533Z,26.60
2019-06-20T14:21:20.378Z,26.70
2019-06-20T14:23:49.043Z,26.80
2019-06-20T14:26:18.280Z,26.80
2019-06-20T14:28:48.231Z,26.70
2019-06-20T14:31:17.119Z,26.60
2019-06-20T14:33:46.110Z,26.50
2019-06-20T14:36:15.071Z,26.40
2019-06-20T14:38:44.389Z,26.20
2019-06-20T14:41:14.120Z,26.10
2019-06-20T14:43:44.360Z,26.00
2019-06-20T14:46:13.419Z,25.90
2019-06-20T14:48:43.554Z,25.70
2019-06-20T14:51:12.817Z,25.60
2019-06-20T14:53:43.889Z,25.60
2019-06-20T14:56:12.147Z,25.50
2019-06-20T14:58:41.477Z,25.50
2019-06-20T15:01:10.567Z,25.50
2019-06-20T15:03:39.358Z,25.60
2019-06-20T15:06:08.765Z,25.90
2019-06-20T15:08:37.506Z,26.20
2019-06-20T15:11:06.545Z,26.40
2019-06-20T15:13:35.466Z,26.70
2019-06-20T15:16:04.253Z,27.00
2019-06-20T15:18:36.113Z,27.30
2019-06-20T15:21:04.803Z,27.50
2019-06-20T15:23:33.635Z,27.50
2019-06-20T15:26:02.347Z,27.60
2019-06-20T15:28:31.435Z,27.60
2019-06-20T15:31:00.579Z,27.60
2019-06-20T15:33:29.251Z,27.60
2019-06-20T15:35:58.355Z,27.50
2019-06-20T15:38:27.744Z,27.40
2019-06-20T15:40:57.659Z,27.20
2019-06-20T15:43:26.533Z,27.00
2019-06-20T15:45:55.828Z,27.00
2019-06-20T15:48:24.806Z,27.10
2019-06-20T15:50:54.097Z,27.00
2019-06-20T15:53:25.791Z,27.10
2019-06-20T15:55:54.968Z,27.20
2019-06-20T15:58:23.699Z,27.30
2019-06-20T16:00:54.414Z,27.20
2019-06-20T16:03:23.326Z,27.10
2019-06-20T16:05:55.935Z,27.10
2019-06-20T16:08:24.993Z,27.10
2019-06-20T16:10:53.843Z,27.00
2019-06-20T16:13:22.967Z,27.00
2019-06-20T16:15:51.974Z,27.00
2019-06-20T16:18:20.662Z,27.20
2019-06-20T16:20:49.831Z,27.20
2019-06-20T16:23:18.643Z,27.30
2019-06-20T16:25:47.526Z,27.20
2019-06-20T16:28:16.718Z,27.20
2019-06-20T16:30:45.703Z,27.20
2019-06-20T16:33:24.669Z,27.00
2019-06-20T16:35:46.242Z,26.80
2019-06-20T16:38:15.019Z,26.90
2019-06-20T16:40:45.820Z,26.90
2019-06-20T16:43:14.768Z,26.90
2019-06-20T16:45:46.182Z,26.80
2019-06-20T16:48:15.078Z,26.60
2019-06-20T16:50:46.167Z,26.50
2019-06-20T16:53:17.651Z,26.60
2019-06-20T16:55:47.702Z,26.70
2019-06-20T16:58:18.428Z,26.90
2019-06-20T17:00:47.416Z,27.00
2019-06-20T17:03:16.101Z,27.20
2019-06-20T17:05:44.931Z,27.10
2019-06-20T17:08:13.837Z,27.00
2019-06-20T17:10:42.610Z,26.90
2019-06-20T17:13:11.562Z,26.70
2019-06-20T17:15:40.372Z,26.50
2019-06-20T17:18:09.277Z,26.40
2019-06-20T17:20:45.922Z,26.40
2019-06-20T17:23:14.791Z,26.30
2019-06-20T17:25:49.342Z,26.30
2019-06-20T17:28:18.463Z,26.20
2019-06-20T17:30:56.569Z,26.20
2019-06-20T17:33:28.434Z,26.10
2019-06-20T17:35:57.287Z,26.20
2019-06-20T17:38:25.968Z,26.20
2019-06-20T17:40:54.706Z,26.10
2019-06-20T17:43:23.536Z,26.10
2019-06-20T17:45:52.289Z,26.00
2019-06-20T17:48:21.452Z,26.00
2019-06-20T17:50:52.517Z,26.00
2019-06-20T17:53:21.463Z,25.80
2019-06-20T17:55:50.712Z,25.80
2019-06-20T17:58:19.695Z,25.80
2019-06-20T18:00:48.545Z,25.70
2019-06-20T18:03:19.994Z,25.60
2019-06-20T18:05:49.936Z,25.70
2019-06-20T18:08:18.658Z,25.70
2019-06-20T18:10:47.378Z,25.80
2019-06-20T18:13:16.307Z,25.80
2019-06-20T18:15:45.334Z,25.80
2019-06-20T18:18:14.156Z,25.90
2019-06-20T18:20:42.841Z,26.00
2019-06-20T18:23:11.903Z,26.10
2019-06-20T18:25:43.584Z,26.10
2019-06-20T18:28:12.556Z,26.00
2019-06-20T18:30:43.002Z,25.90
2019-06-20T18:33:12.119Z,25.90
2019-06-20T18:35:40.909Z,25.90
2019-06-20T18:38:10.719Z,25.80
2019-06-20T18:40:39.801Z,25.70
2019-06-20T18:43:08.606Z,25.60
2019-06-20T18:45:37.302Z,25.60
2019-06-20T18:48:06.125Z,25.50
2019-06-20T18:50:34.801Z,25.50
2019-06-20T18:53:03.589Z,25.40
2019-06-20T18:55:32.391Z,25.40
2019-06-20T18:58:01.113Z,25.30
2019-06-20T19:00:35.023Z,25.20
2019-06-20T19:03:01.974Z,25.10
2019-06-20T19:05:30.706Z,25.10
2019-06-20T19:07:59.392Z,25.00
2019-06-20T19:10:28.446Z,24.90
2019-06-20T19:12:57.175Z,24.90
2019-06-20T19:15:26.903Z,24.70
2019-06-20T19:17:55.882Z,24.70
2019-06-20T19:20:25.166Z,24.60
2019-06-20T19:22:56.985Z,24.60
2019-06-20T19:25:25.770Z,24.60
2019-06-20T19:27:55.117Z,24.50
2019-06-20T19:30:37.953Z,24.60
2019-06-20T19:33:06.623Z,24.60
2019-06-20T19:35:35.552Z,24.50
2019-06-20T19:38:04.556Z,24.50
2019-06-20T19:40:36.558Z,24.50
2019-06-20T19:43:05.345Z,24.40
2019-06-20T19:45:34.218Z,24.40
2019-06-20T19:48:02.969Z,24.40
2019-06-20T19:50:31.973Z,24.30
2019-06-20T19:53:00.831Z,24.30
2019-06-20T19:55:29.713Z,24.30
2019-06-20T19:57:58.658Z,24.30
2019-06-20T20:00:27.897Z,24.30
2019-06-20T20:02:56.640Z,24.30
2019-06-20T20:05:25.387Z,24.30
2019-06-20T20:07:54.137Z,24.30
2019-06-20T20:10:31.974Z,24.30
2019-06-20T20:13:01.274Z,24.30
2019-06-20T20:15:30.248Z,24.40
2019-06-20T20:17:59.474Z,24.30
2019-06-20T20:20:28.299Z,24.30
2019-06-20T20:22:56.972Z,24.30
2019-06-20T20:25:25.984Z,24.30
2019-06-20T20:27:54.674Z,24.30
2019-06-20T20:30:23.560Z,24.30
2019-06-20T20:32:53.640Z,24.20
2019-06-20T20:35:34.995Z,24.20
2019-06-20T20:37:52.878Z,24.20
2019-06-20T20:40:22.613Z,24.20
2019-06-20T20:42:52.494Z,24.20
2019-06-20T20:45:22.663Z,24.20
2019-06-20T20:47:51.325Z,24.20
2019-06-20T20:50:20.668Z,24.30
2019-06-20T20:52:49.750Z,24.30
2019-06-20T20:55:18.743Z,24.20
2019-06-20T20:57:49.642Z,24.20
2019-06-20T21:00:24.476Z,24.20
2019-06-20T21:02:53.471Z,24.20
2019-06-20T21:05:22.408Z,24.20
2019-06-20T21:07:51.191Z,24.10
2019-06-20T21:10:20.564Z,24.10
2019-06-20T21:12:49.316Z,24.10
2019-06-20T21:15:18.417Z,24.00
2019-06-20T21:17:47.198Z,23.90
2019-06-20T21:20:16.421Z,23.80
2019-06-20T21:22:45.250Z,23.70
2019-06-20T21:25:14.241Z,23.70
2019-06-20T21:27:45.443Z,23.60
2019-06-20T21:30:16.412Z,23.60
2019-06-20T21:32:45.194Z,23.60
2019-06-20T21:35:14.787Z,23.50
2019-06-20T21:37:43.673Z,23.60
2019-06-20T21:40:12.600Z,23.60
2019-06-20T21:42:41.293Z,23.60
2019-06-20T21:45:11.020Z,23.60
2019-06-20T21:47:39.826Z,23.50
2019-06-20T21:50:09.742Z,23.60
2019-06-20T21:52:38.491Z,23.70
2019-06-20T21:55:07.503Z,23.70
2019-06-20T21:57:36.427Z,23.80
2019-06-20T22:00:12.731Z,23.80
2019-06-20T22:02:41.657Z,23.90
2019-06-20T22:05:11.233Z,24.00
2019-06-20T22:07:40.040Z,23.90
2019-06-20T22:10:09.420Z,23.90
2019-06-20T22:12:38.090Z,23.70
2019-06-20T22:15:07.098Z,23.60
2019-06-20T22:17:35.907Z,23.40
2019-06-20T22:20:05.811Z,23.30
2019-06-20T22:22:34.686Z,23.10
2019-06-20T22:25:03.973Z,22.90
2019-06-20T22:27:32.726Z,22.80
2019-06-20T22:30:03.833Z,22.70
2019-06-20T22:32:32.208Z,22.50
2019-06-20T22:35:00.887Z,22.40
2019-06-20T22:37:29.847Z,22.30
2019-06-20T22:39:58.843Z,22.10
2019-06-20T22:42:27.541Z,22.00
2019-06-20T22:44:56.311Z,21.90
2019-06-20T22:47:26.185Z,21.80
2019-06-20T22:49:54.976Z,21.60
2019-06-20T22:52:23.826Z,21.70
2019-06-20T22:54:52.560Z,21.80
2019-06-20T22:57:21.680Z,21.90
2019-06-20T22:59:50.469Z,22.10
2019-06-20T23:02:19.531Z,22.10
2019-06-20T23:04:48.420Z,22.00
2019-06-20T23:07:17.115Z,22.10
2019-06-20T23:09:45.984Z,22.00
2019-06-20T23:12:15.391Z,21.90
2019-06-20T23:14:44.450Z,21.90
2019-06-20T23:17:13.346Z,21.90
2019-06-20T23:19:42.028Z,21.90
2019-06-20T23:22:10.711Z,21.80
2019-06-20T23:24:39.439Z,21.70
2019-06-20T23:27:08.241Z,21.60
2019-06-20T23:29:37.262Z,21.50
2019-06-20T23:32:06.298Z,21.40
2019-06-20T23:34:35.008Z,21.40
2019-06-20T23:37:12.736Z,21.40
2019-06-20T23:39:34.160Z,21.40
2019-06-20T23:42:02.846Z,21.40
2019-06-20T23:44:31.513Z,21.40
2019-06-20T23:47:00.334Z,21.40
2019-06-20T23:49:29.123Z,21.30
2019-06-20T23:52:03.181Z,21.10
2019-06-20T23:54:32.497Z,20.90
2019-06-20T23:57:01.465Z,20.90
2019-06-20T23:59:30.367Z,20.90
